Portada
METAR-TAF:

METAR-TAF

Aeropuertos :

Aeropuerto de Huesca-Pirineos

Huesca, España

latitud: 42-04-32N, longitud: 0-18-58W, altitud: 539 m

Observación

El informe se hizo hace 23 minutos, a las 15:30 UTC
Viento 10 kt del este, variando entre este-noreste y este-sureste
Temperatura 16°C
Humedad 16%
Presión 1027 hPa
Visibilidad 10 km o más
sin nubes por debajo de 1500 m y sin presencia de cumulonimbus.

METAR: LEHC 161530Z 09010KT 060V120 CAVOK 16/M10 Q1027

Hora: 16:53 (15:53 UTC)

Pronóstico

El informe se hizo hace 7 horas y 53 minutos, a las 08:00 UTC
Pronóstico válido del 16 a las 09 UTC al 17 a las 09 UTC
Viento 8 kt del este
Visibilidad 10 km o más
Escasas nubes a una altura de 3000 ft

TAF: LEHC 160800Z 1609/1709 09008KT 9999 FEW030 TX17/1614Z TNM02/1707Z

Observaciones y pronósticos meteorológicos de más de 4000 aeropuertos (mensajes METAR y TAF).

Los puntos amarillos y rojos representan las estaciones disponibles.

Ponga el ratón en el punto deseado para ver el nombre de la estación.

Haga clic para ver las observaciones y los pronósticos meteorológicos.

Para cambiar el mapa : haga clic en los botones verdes con una cruz de color negro para hacer un zoom, en el botón verde con un guión para alejar o en las flechas verdes para mapas adyacentes.


METAR-TAF: